createdAt,value
2022-08-28T00:01:02.788Z,22.56
2022-08-28T00:03:32.444Z,22.55
2022-08-28T00:06:00.445Z,22.54
2022-08-28T00:08:30.637Z,22.52
2022-08-28T00:10:58.558Z,22.51
2022-08-28T00:13:26.955Z,22.49
2022-08-28T00:16:00.956Z,22.48
2022-08-28T00:18:31.479Z,22.45
2022-08-28T00:21:00.200Z,22.44
2022-08-28T00:23:42.319Z,22.43
2022-08-28T00:26:32.346Z,22.41
2022-08-28T00:29:00.363Z,22.39
2022-08-28T00:31:28.336Z,22.37
2022-08-28T00:33:56.323Z,22.36
2022-08-28T00:36:24.187Z,22.34
2022-08-28T00:38:52.035Z,22.32
2022-08-28T00:41:24.887Z,22.31
2022-08-28T00:44:10.371Z,22.30
2022-08-28T00:46:39.570Z,22.28
2022-08-28T00:49:07.560Z,22.27
2022-08-28T00:51:55.774Z,22.25
2022-08-28T00:54:25.240Z,22.24
2022-08-28T00:56:54.998Z,22.21
2022-08-28T00:59:25.356Z,22.20
2022-08-28T01:01:57.326Z,22.17
2022-08-28T01:04:29.217Z,22.14
2022-08-28T01:06:57.517Z,22.13
2022-08-28T01:09:29.729Z,22.11
2022-08-28T01:12:16.688Z,22.09
2022-08-28T01:14:48.930Z,22.07
2022-08-28T01:17:18.487Z,22.04
2022-08-28T01:19:57.228Z,22.01
2022-08-28T01:22:41.607Z,21.98
2022-08-28T01:25:15.145Z,21.94
2022-08-28T01:27:43.049Z,21.91
2022-08-28T01:30:15.829Z,21.89
2022-08-28T01:32:54.576Z,21.87
2022-08-28T01:35:32.006Z,21.84
2022-08-28T01:38:01.242Z,21.81
2022-08-28T01:40:44.585Z,21.80
2022-08-28T01:43:19.894Z,21.78
2022-08-28T01:45:53.027Z,21.75
2022-08-28T01:48:25.157Z,21.73
2022-08-28T01:50:53.731Z,21.70
2022-08-28T01:53:25.803Z,21.68
2022-08-28T01:56:04.741Z,21.67
2022-08-28T01:58:37.876Z,21.66
2022-08-28T02:01:12.330Z,21.64
2022-08-28T02:03:43.336Z,21.62
2022-08-28T02:06:13.724Z,21.61
2022-08-28T02:08:41.681Z,21.58
2022-08-28T02:11:10.497Z,21.56
2022-08-28T02:13:40.387Z,21.53
2022-08-28T02:16:10.643Z,21.50
2022-08-28T02:18:38.909Z,21.48
2022-08-28T02:21:09.021Z,21.46
2022-08-28T02:23:43.790Z,21.45
2022-08-28T02:26:13.543Z,21.43
2022-08-28T02:28:42.463Z,21.42
2022-08-28T02:31:11.238Z,21.40
2022-08-28T02:33:44.872Z,21.38
2022-08-28T02:36:15.251Z,21.35
2022-08-28T02:39:05.260Z,21.34
2022-08-28T02:41:59.773Z,21.31
2022-08-28T02:44:27.840Z,21.28
2022-08-28T02:46:55.630Z,21.26
2022-08-28T02:49:36.067Z,21.24
2022-08-28T02:52:06.946Z,21.21
2022-08-28T02:54:35.386Z,21.18
2022-08-28T02:57:04.017Z,21.15
2022-08-28T02:59:32.257Z,21.13
2022-08-28T03:02:01.014Z,21.12
2022-08-28T03:04:28.862Z,21.09
2022-08-28T03:06:56.659Z,21.08
2022-08-28T03:09:24.694Z,21.06
2022-08-28T03:11:54.099Z,21.04
2022-08-28T03:14:22.760Z,21.01
2022-08-28T03:16:50.701Z,20.99
2022-08-28T03:19:50.648Z,20.96
2022-08-28T03:22:40.044Z,20.91
2022-08-28T03:25:08.837Z,20.88
2022-08-28T03:27:38.597Z,20.86
2022-08-28T03:30:09.251Z,20.85
2022-08-28T03:32:37.521Z,20.91
2022-08-28T03:35:11.026Z,20.95
2022-08-28T03:37:40.250Z,20.97
2022-08-28T03:40:10.556Z,20.93
2022-08-28T03:42:38.954Z,20.88
2022-08-28T03:45:12.390Z,20.84
2022-08-28T03:47:41.973Z,20.81
2022-08-28T03:50:12.501Z,20.80
2022-08-28T03:52:41.367Z,20.79
2022-08-28T03:55:12.383Z,20.78
2022-08-28T03:57:40.780Z,20.78
2022-08-28T04:00:12.688Z,20.77
2022-08-28T04:02:42.662Z,20.75
2022-08-28T04:05:11.503Z,20.74
2022-08-28T04:07:40.335Z,20.73
2022-08-28T04:10:09.182Z,20.73
2022-08-28T04:12:37.592Z,20.73
2022-08-28T04:15:07.253Z,20.74
2022-08-28T04:17:39.258Z,20.74
2022-08-28T04:20:11.183Z,20.74
2022-08-28T04:22:40.127Z,20.74
2022-08-28T04:25:11.628Z,20.74
2022-08-28T04:27:40.271Z,20.75
2022-08-28T04:30:09.925Z,20.75
2022-08-28T04:32:39.487Z,20.74
2022-08-28T04:35:11.316Z,20.74
2022-08-28T04:37:40.486Z,20.72
2022-08-28T04:40:11.064Z,20.72
2022-08-28T04:42:40.249Z,20.72
2022-08-28T04:45:08.556Z,20.71
2022-08-28T04:47:39.565Z,20.70
2022-08-28T04:50:08.685Z,20.71
2022-08-28T04:52:36.733Z,20.72
2022-08-28T04:55:05.554Z,20.72
2022-08-28T04:57:36.427Z,20.73
2022-08-28T05:00:07.792Z,20.73
2022-08-28T05:02:43.442Z,20.73
2022-08-28T05:10:08.288Z,20.80
2022-08-28T05:12:36.913Z,20.83
2022-08-28T05:15:05.951Z,20.84
2022-08-28T05:17:33.937Z,20.87
2022-08-28T05:20:02.332Z,20.91
2022-08-28T05:22:32.636Z,20.93
2022-08-28T05:25:02.845Z,20.93
2022-08-28T05:27:30.805Z,20.91
2022-08-28T05:30:01.994Z,20.89
2022-08-28T05:32:30.351Z,20.88
2022-08-28T05:34:58.720Z,20.90
2022-08-28T05:37:37.043Z,20.92
2022-08-28T05:40:06.708Z,20.93
2022-08-28T05:42:38.876Z,20.95
2022-08-28T05:45:08.227Z,20.98
2022-08-28T05:47:36.267Z,21.01
2022-08-28T05:50:06.319Z,21.02
2022-08-28T05:52:38.808Z,21.04
2022-08-28T05:55:18.096Z,21.08
2022-08-28T05:57:48.796Z,21.14
2022-08-28T06:00:18.616Z,21.19
2022-08-28T06:02:46.648Z,21.25
2022-08-28T06:05:16.521Z,21.33
2022-08-28T06:07:44.431Z,21.43
2022-08-28T06:10:12.392Z,21.52
2022-08-28T06:12:43.134Z,21.62
2022-08-28T06:15:21.875Z,21.78
2022-08-28T06:17:49.928Z,21.90
2022-08-28T06:20:18.092Z,21.95
2022-08-28T06:22:46.097Z,21.99
2022-08-28T06:25:14.449Z,22.02
2022-08-28T06:27:43.056Z,22.05
2022-08-28T06:30:12.873Z,22.07
2022-08-28T06:32:41.071Z,22.08
2022-08-28T06:35:19.421Z,22.10
2022-08-28T06:38:01.410Z,22.12
2022-08-28T06:40:51.106Z,22.15
2022-08-28T06:43:27.774Z,22.19
2022-08-28T06:45:58.146Z,22.23
2022-08-28T06:48:28.647Z,22.26
2022-08-28T06:50:57.950Z,22.27
2022-08-28T06:53:29.558Z,22.29
2022-08-28T06:56:26.278Z,22.29
2022-08-28T06:58:58.148Z,22.30
2022-08-28T07:01:37.754Z,22.31
2022-08-28T07:04:10.181Z,22.31
2022-08-28T07:06:41.050Z,22.33
2022-08-28T07:09:13.924Z,22.34
2022-08-28T07:11:49.031Z,22.33
2022-08-28T07:14:17.389Z,22.32
2022-08-28T07:16:46.036Z,22.32
2022-08-28T07:19:14.583Z,22.32
2022-08-28T07:21:49.804Z,22.34
2022-08-28T07:24:18.206Z,22.35
2022-08-28T07:26:47.950Z,22.37
2022-08-28T07:29:17.746Z,22.40
2022-08-28T07:31:49.659Z,22.42
2022-08-28T07:34:20.595Z,22.43
2022-08-28T07:36:51.906Z,22.42
2022-08-28T07:39:20.547Z,22.43
2022-08-28T07:41:48.739Z,22.44
2022-08-28T07:44:38.437Z,22.46
2022-08-28T07:47:08.658Z,22.46
2022-08-28T07:49:36.650Z,22.47
2022-08-28T07:52:07.862Z,22.47
2022-08-28T07:54:40.572Z,22.48
2022-08-28T07:57:10.384Z,22.49
2022-08-28T07:59:39.987Z,22.51
2022-08-28T08:02:12.053Z,22.54
2022-08-28T08:04:40.813Z,22.56
2022-08-28T08:07:13.041Z,22.58
2022-08-28T08:09:43.728Z,22.62
2022-08-28T08:12:13.766Z,22.66
2022-08-28T08:14:44.163Z,22.71
2022-08-28T08:17:12.249Z,22.75
2022-08-28T08:19:41.056Z,22.80
2022-08-28T08:22:09.084Z,22.84
2022-08-28T08:24:37.456Z,22.88
2022-08-28T08:27:10.256Z,22.91
2022-08-28T08:29:39.185Z,22.95
2022-08-28T08:32:10.761Z,22.98
2022-08-28T08:34:42.428Z,23.02
2022-08-28T08:37:12.811Z,23.08
2022-08-28T08:39:42.702Z,23.14
2022-08-28T08:42:32.779Z,23.20
2022-08-28T08:45:04.388Z,23.27
2022-08-28T08:47:54.124Z,23.31
2022-08-28T08:50:30.037Z,23.36
2022-08-28T08:53:28.771Z,23.40
2022-08-28T08:55:58.303Z,23.46
2022-08-28T08:58:45.768Z,23.51
2022-08-28T09:02:06.752Z,23.56
2022-08-28T09:05:08.205Z,23.63
2022-08-28T09:07:59.665Z,23.73
2022-08-28T09:10:39.699Z,23.87
2022-08-28T09:13:50.330Z,23.98
2022-08-28T09:16:32.296Z,24.09
2022-08-28T09:19:01.064Z,24.17
2022-08-28T09:21:34.538Z,24.26
2022-08-28T09:24:10.978Z,24.31
2022-08-28T09:26:40.599Z,24.34
2022-08-28T09:29:17.248Z,24.37
2022-08-28T09:31:45.464Z,24.39
2022-08-28T09:34:24.142Z,24.42
2022-08-28T09:36:54.909Z,24.43
2022-08-28T09:39:36.032Z,24.44
2022-08-28T09:42:45.404Z,24.44
2022-08-28T09:45:21.363Z,24.42
2022-08-28T09:47:58.367Z,24.42
2022-08-28T09:50:38.841Z,24.41
2022-08-28T09:53:09.965Z,24.40
2022-08-28T09:56:11.185Z,24.39
2022-08-28T09:59:15.831Z,24.38
2022-08-28T10:01:47.732Z,24.38
2022-08-28T10:04:29.110Z,24.38
2022-08-28T10:07:30.517Z,24.39
2022-08-28T10:10:35.975Z,24.38
2022-08-28T10:13:10.971Z,24.36
2022-08-28T10:15:44.040Z,24.34
2022-08-28T10:18:47.217Z,24.33
2022-08-28T10:21:41.108Z,24.32
2022-08-28T10:24:34.618Z,24.30
2022-08-28T10:27:57.285Z,24.29
2022-08-28T10:30:29.854Z,24.26
2022-08-28T10:33:22.138Z,24.24
2022-08-28T10:36:03.898Z,24.21
2022-08-28T10:38:50.822Z,24.20
2022-08-28T10:41:26.146Z,24.19
2022-08-28T10:43:55.370Z,24.19
2022-08-28T10:46:35.751Z,24.18
2022-08-28T10:49:13.331Z,24.18
2022-08-28T10:51:58.594Z,24.16
2022-08-28T10:55:04.968Z,24.15
2022-08-28T10:57:39.554Z,24.12
2022-08-28T11:00:16.745Z,24.09
2022-08-28T11:02:55.040Z,24.06
2022-08-28T11:05:27.782Z,24.02
2022-08-28T11:08:07.042Z,23.97
2022-08-28T11:10:35.106Z,23.92
2022-08-28T11:13:10.418Z,23.89
2022-08-28T11:15:45.881Z,23.85
2022-08-28T11:18:16.231Z,23.83
2022-08-28T11:20:58.310Z,23.79
2022-08-28T11:23:57.635Z,23.76
2022-08-28T11:26:58.944Z,23.71
2022-08-28T11:30:31.355Z,23.66
2022-08-28T11:33:04.236Z,23.62
2022-08-28T11:35:49.728Z,23.60
2022-08-28T11:38:42.700Z,23.58
2022-08-28T11:41:41.988Z,23.55
2022-08-28T11:44:11.323Z,23.52
2022-08-28T11:46:43.655Z,23.49
2022-08-28T11:49:26.824Z,23.46
2022-08-28T11:58:41.901Z,23.33
2022-08-28T12:01:14.516Z,23.28
2022-08-28T12:04:08.122Z,23.24
2022-08-28T12:06:45.454Z,23.20
2022-08-28T12:09:50.007Z,23.16
2022-08-28T12:12:20.751Z,23.11
2022-08-28T12:14:48.563Z,23.09
2022-08-28T12:17:31.196Z,23.06
2022-08-28T12:20:11.309Z,23.03
2022-08-28T12:22:50.374Z,23.01
2022-08-28T12:25:46.906Z,23.00
2022-08-28T12:28:44.333Z,22.99
2022-08-28T12:31:57.390Z,22.99
2022-08-28T12:34:29.093Z,23.00
2022-08-28T12:37:04.300Z,23.02
2022-08-28T12:39:32.764Z,23.03
2022-08-28T12:42:03.770Z,23.05
2022-08-28T12:44:33.378Z,23.07
2022-08-28T12:47:01.360Z,23.10
2022-08-28T12:49:37.278Z,23.13
2022-08-28T12:52:12.278Z,23.15
2022-08-28T12:54:46.648Z,23.19
2022-08-28T12:57:20.784Z,23.21
2022-08-28T12:59:55.629Z,23.23
2022-08-28T13:02:34.256Z,23.25
2022-08-28T13:05:08.360Z,23.26
2022-08-28T13:07:41.854Z,23.28
2022-08-28T13:10:30.064Z,23.31
2022-08-28T13:13:07.711Z,23.34
2022-08-28T13:16:04.189Z,23.37
2022-08-28T13:18:44.346Z,23.39
2022-08-28T13:21:32.566Z,23.40
2022-08-28T13:24:21.362Z,23.39
2022-08-28T13:27:12.870Z,23.37
2022-08-28T13:29:52.489Z,23.36
2022-08-28T13:32:26.189Z,23.35
2022-08-28T13:35:13.084Z,23.35
2022-08-28T13:37:48.879Z,23.34
2022-08-28T13:40:55.658Z,23.34
2022-08-28T13:43:11.910Z,23.35
2022-08-28T13:45:46.243Z,23.37
2022-08-28T13:48:23.679Z,23.38
2022-08-28T13:51:03.554Z,23.40
2022-08-28T13:53:33.126Z,23.40
2022-08-28T13:56:00.997Z,23.41
2022-08-28T13:58:29.261Z,23.42
2022-08-28T14:00:57.504Z,23.42
2022-08-28T14:03:41.301Z,23.42
2022-08-28T14:06:16.854Z,23.43
2022-08-28T14:08:46.705Z,23.42
2022-08-28T14:11:15.853Z,23.40
2022-08-28T14:13:47.231Z,23.39
2022-08-28T14:16:25.650Z,23.38
2022-08-28T14:18:53.941Z,23.37
2022-08-28T14:21:24.624Z,23.37
2022-08-28T14:23:53.011Z,23.35
2022-08-28T14:26:20.964Z,23.34
2022-08-28T14:28:48.758Z,23.34
2022-08-28T14:31:16.981Z,23.33
2022-08-28T14:33:45.097Z,23.33
2022-08-28T14:36:22.420Z,23.33
2022-08-28T14:38:54.266Z,23.33
2022-08-28T14:41:24.196Z,23.33
2022-08-28T14:43:53.443Z,23.35
2022-08-28T14:46:31.609Z,23.35
2022-08-28T14:49:04.065Z,23.37
2022-08-28T14:51:35.075Z,23.38
2022-08-28T14:54:03.281Z,23.39
2022-08-28T14:56:32.833Z,23.39
2022-08-28T14:59:02.717Z,23.39
2022-08-28T15:01:40.499Z,23.40
2022-08-28T15:04:14.252Z,23.40
2022-08-28T15:06:43.272Z,23.40
2022-08-28T15:09:13.503Z,23.40
2022-08-28T15:11:42.339Z,23.41
2022-08-28T15:14:11.280Z,23.41
2022-08-28T15:16:45.850Z,23.42
2022-08-28T15:19:18.088Z,23.43
2022-08-28T15:21:55.308Z,23.46
2022-08-28T15:24:35.765Z,23.49
2022-08-28T15:27:03.833Z,23.52
2022-08-28T15:29:31.677Z,23.55
2022-08-28T15:32:00.733Z,23.57
2022-08-28T15:34:28.930Z,23.59
2022-08-28T15:36:58.474Z,23.62
2022-08-28T15:39:47.521Z,23.64
2022-08-28T15:42:15.814Z,23.65
2022-08-28T15:44:44.421Z,23.66
2022-08-28T15:47:13.864Z,23.66
2022-08-28T15:49:43.545Z,23.65
2022-08-28T15:52:21.278Z,23.63
2022-08-28T15:54:49.075Z,23.61
2022-08-28T15:57:17.781Z,23.59
2022-08-28T15:59:49.532Z,23.56
2022-08-28T16:02:21.768Z,23.53
2022-08-28T16:04:50.456Z,23.50
2022-08-28T16:07:20.477Z,23.46
2022-08-28T16:09:49.237Z,23.42
2022-08-28T16:12:17.705Z,23.38
2022-08-28T16:14:45.562Z,23.34
2022-08-28T16:17:14.111Z,23.30
2022-08-28T16:19:43.119Z,23.25
2022-08-28T16:22:12.923Z,23.20
2022-08-28T16:24:40.731Z,23.15
2022-08-28T16:27:13.244Z,23.09
2022-08-28T16:29:46.429Z,23.03
2022-08-28T16:32:17.862Z,22.97
2022-08-28T16:34:45.748Z,22.91
2022-08-28T16:37:18.552Z,22.86
2022-08-28T16:39:47.600Z,22.82
2022-08-28T16:42:15.648Z,22.76
2022-08-28T16:44:43.502Z,22.73
2022-08-28T16:47:11.348Z,22.67
2022-08-28T16:49:40.362Z,22.64
2022-08-28T16:52:08.223Z,22.60
2022-08-28T16:54:36.070Z,22.57
2022-08-28T16:57:03.962Z,22.54
2022-08-28T16:59:31.819Z,22.51
2022-08-28T17:01:59.960Z,22.49
2022-08-28T17:04:27.879Z,22.46
2022-08-28T17:06:56.307Z,22.44
2022-08-28T17:09:24.667Z,22.43
2022-08-28T17:11:53.578Z,22.40
2022-08-28T17:14:22.116Z,22.38
2022-08-28T17:16:51.455Z,22.35
2022-08-28T17:19:20.917Z,22.33
2022-08-28T17:22:07.565Z,22.32
2022-08-28T17:24:35.941Z,22.29
2022-08-28T17:27:05.848Z,22.27
2022-08-28T17:29:36.454Z,22.25
2022-08-28T17:32:07.809Z,22.23
2022-08-28T17:34:37.554Z,22.22
2022-08-28T17:37:05.911Z,22.21
2022-08-28T17:39:33.803Z,22.18
2022-08-28T17:42:01.695Z,22.16
2022-08-28T17:44:30.755Z,22.13
2022-08-28T17:46:58.541Z,22.11
2022-08-28T17:49:27.018Z,22.08
2022-08-28T17:51:55.071Z,22.05
2022-08-28T17:54:24.339Z,22.01
2022-08-28T17:56:54.603Z,21.98
2022-08-28T17:59:24.747Z,21.95
2022-08-28T18:01:58.174Z,21.92
2022-08-28T18:04:44.742Z,21.88
2022-08-28T18:07:12.960Z,21.85
2022-08-28T18:09:41.201Z,21.81
2022-08-28T18:12:12.587Z,21.78
2022-08-28T18:14:41.289Z,21.74
2022-08-28T18:17:10.863Z,21.71
2022-08-28T18:19:40.197Z,21.67
2022-08-28T18:22:14.863Z,21.64
2022-08-28T18:24:46.786Z,21.60
2022-08-28T18:27:14.743Z,21.55
2022-08-28T18:29:42.609Z,21.50
2022-08-28T18:32:13.435Z,21.47
2022-08-28T18:34:41.528Z,21.42
2022-08-28T18:37:09.663Z,21.38
2022-08-28T18:39:39.240Z,21.34
2022-08-28T18:42:07.700Z,21.30
2022-08-28T18:44:37.050Z,21.26
2022-08-28T18:47:07.353Z,21.23
2022-08-28T18:49:35.294Z,21.19
2022-08-28T18:52:04.509Z,21.16
2022-08-28T18:54:37.762Z,21.12
2022-08-28T18:57:09.063Z,21.09
2022-08-28T18:59:45.039Z,21.07
2022-08-28T19:02:18.109Z,21.03
2022-08-28T19:04:49.295Z,21.01
2022-08-28T19:07:17.325Z,20.98
2022-08-28T19:09:45.537Z,20.95
2022-08-28T19:12:13.505Z,20.93
2022-08-28T19:14:44.338Z,20.91
2022-08-28T19:17:12.333Z,20.88
2022-08-28T19:19:40.515Z,20.87
2022-08-28T19:22:08.591Z,20.85
2022-08-28T19:24:36.559Z,20.83
2022-08-28T19:27:05.121Z,20.81
2022-08-28T19:29:33.093Z,20.80
2022-08-28T19:32:01.167Z,20.78
2022-08-28T19:34:32.676Z,20.77
2022-08-28T19:37:01.650Z,20.75
2022-08-28T19:39:32.760Z,20.73
2022-08-28T19:42:05.573Z,20.71
2022-08-28T19:44:33.672Z,20.69
2022-08-28T19:47:02.136Z,20.68
2022-08-28T19:49:30.477Z,20.66
2022-08-28T19:52:01.325Z,20.65
2022-08-28T19:54:32.179Z,20.63
2022-08-28T19:57:00.008Z,20.61
2022-08-28T19:59:28.142Z,20.60
2022-08-28T20:02:03.588Z,20.59
2022-08-28T20:04:38.865Z,20.57
2022-08-28T20:07:09.103Z,20.56
2022-08-28T20:09:39.319Z,20.55
2022-08-28T20:12:07.472Z,20.55
2022-08-28T20:14:48.635Z,20.53
2022-08-28T20:17:18.854Z,20.53
2022-08-28T20:19:47.762Z,20.52
2022-08-28T20:22:15.896Z,20.51
2022-08-28T20:24:44.205Z,20.51
2022-08-28T20:27:12.069Z,20.50
2022-08-28T20:29:40.001Z,20.50
2022-08-28T20:32:07.785Z,20.50
2022-08-28T20:34:35.769Z,20.50
2022-08-28T20:37:04.306Z,20.51
2022-08-28T20:39:32.139Z,20.52
2022-08-28T20:42:00.054Z,20.52
2022-08-28T20:44:27.855Z,20.54
2022-08-28T20:46:55.688Z,20.55
2022-08-28T20:49:23.908Z,20.55
2022-08-28T20:51:59.046Z,20.56
2022-08-28T20:54:34.011Z,20.57
2022-08-28T20:57:09.535Z,20.57
2022-08-28T20:59:40.799Z,20.57
2022-08-28T21:02:19.422Z,20.57
2022-08-28T21:04:47.857Z,20.57
2022-08-28T21:07:18.850Z,20.56
2022-08-28T21:10:05.589Z,20.56
2022-08-28T21:12:39.032Z,20.56
2022-08-28T21:15:10.880Z,20.55
2022-08-28T21:17:40.277Z,20.55
2022-08-28T21:20:13.284Z,20.55
2022-08-28T21:22:42.217Z,20.55
2022-08-28T21:25:10.890Z,20.55
2022-08-28T21:27:40.277Z,20.55
2022-08-28T21:30:12.933Z,20.55
2022-08-28T21:32:40.766Z,20.55
2022-08-28T21:35:11.133Z,20.53
2022-08-28T21:37:41.343Z,20.53
2022-08-28T21:40:12.326Z,20.52
2022-08-28T21:42:40.550Z,20.52
2022-08-28T21:45:12.048Z,20.51
2022-08-28T21:47:41.936Z,20.50
2022-08-28T21:50:11.015Z,20.50
2022-08-28T21:52:39.116Z,20.49
2022-08-28T21:55:14.965Z,20.48
2022-08-28T21:57:43.164Z,20.47
2022-08-28T22:00:23.743Z,20.46
2022-08-28T22:02:52.035Z,20.45
2022-08-28T22:05:20.680Z,20.44
2022-08-28T22:07:53.833Z,20.43
2022-08-28T22:10:23.213Z,20.41
2022-08-28T22:12:51.612Z,20.39
2022-08-28T22:15:19.622Z,20.37
2022-08-28T22:17:47.714Z,20.35
2022-08-28T22:20:16.146Z,20.32
2022-08-28T22:23:02.763Z,20.30
2022-08-28T22:25:31.034Z,20.26
2022-08-28T22:27:59.716Z,20.23
2022-08-28T22:30:27.719Z,20.19
2022-08-28T22:32:55.687Z,20.15
2022-08-28T22:35:23.548Z,20.12
2022-08-28T22:37:54.013Z,20.08
2022-08-28T22:40:23.037Z,20.05
2022-08-28T22:42:51.337Z,20.02
2022-08-28T22:45:20.433Z,19.99
2022-08-28T22:47:49.789Z,19.97
2022-08-28T22:50:17.909Z,19.94
2022-08-28T22:52:49.997Z,19.92
2022-08-28T22:55:20.930Z,19.91
2022-08-28T22:57:50.072Z,19.90
2022-08-28T23:00:24.050Z,19.89
2022-08-28T23:02:56.512Z,19.88
2022-08-28T23:05:26.984Z,19.87
2022-08-28T23:07:55.603Z,19.85
2022-08-28T23:10:36.939Z,19.83
2022-08-28T23:13:14.504Z,19.81
2022-08-28T23:15:44.007Z,19.80
2022-08-28T23:18:11.944Z,19.77
2022-08-28T23:20:40.497Z,19.75
2022-08-28T23:23:08.948Z,19.71
2022-08-28T23:25:37.015Z,19.69
2022-08-28T23:28:06.552Z,19.67
2022-08-28T23:30:39.158Z,19.63
2022-08-28T23:33:08.839Z,19.60
2022-08-28T23:35:37.303Z,19.56
2022-08-28T23:38:05.766Z,19.52
2022-08-28T23:40:34.075Z,19.48
2022-08-28T23:43:04.319Z,19.49
2022-08-28T23:45:32.671Z,19.50
2022-08-28T23:48:01.495Z,19.50
2022-08-28T23:50:30.489Z,19.50
2022-08-28T23:52:58.729Z,19.49
2022-08-28T23:55:27.016Z,19.48
2022-08-28T23:57:55.952Z,19.44
